createdAt,value
2023-02-11T00:02:42.228Z,67.43
2023-02-11T00:05:48.245Z,67.82
2023-02-11T00:08:55.228Z,68.21
2023-02-11T00:12:03.795Z,67.21
2023-02-11T00:15:13.130Z,65.15
2023-02-11T00:18:19.618Z,65.33
2023-02-11T00:21:28.955Z,65.76
2023-02-11T00:24:34.934Z,68.93
2023-02-11T00:27:44.363Z,68.45
2023-02-11T00:30:58.321Z,68.04
2023-02-11T00:34:05.010Z,69.67
2023-02-11T00:37:12.230Z,69.54
2023-02-11T00:40:21.926Z,69.11
2023-02-11T00:43:30.695Z,68.57
2023-02-11T00:46:37.997Z,68.58
2023-02-11T00:49:43.903Z,68.48
2023-02-11T00:52:50.725Z,68.07
2023-02-11T00:55:56.770Z,67.36
2023-02-11T00:59:08.242Z,66.21
2023-02-11T01:02:14.063Z,66.33
2023-02-11T01:05:23.904Z,65.17
2023-02-11T01:08:30.129Z,65.59
2023-02-11T01:11:36.915Z,64.14
2023-02-11T01:14:46.347Z,63.92
2023-02-11T01:17:53.238Z,63.62
2023-02-11T01:20:59.173Z,63.37
2023-02-11T01:24:05.807Z,63.09
2023-02-11T01:27:11.794Z,61.83
2023-02-11T01:30:23.206Z,62.64
2023-02-11T01:33:29.106Z,62.04
2023-02-11T01:36:35.760Z,62.64
2023-02-11T01:39:41.658Z,62.10
2023-02-11T01:42:50.919Z,62.22
2023-02-11T01:46:11.215Z,63.60
2023-02-11T01:49:24.512Z,63.90
2023-02-11T01:52:37.916Z,63.78
2023-02-11T01:55:57.141Z,63.35
2023-02-11T01:59:14.744Z,63.16
2023-02-11T02:02:32.801Z,62.67
2023-02-11T02:05:52.183Z,60.37
2023-02-11T02:09:08.902Z,59.78
2023-02-11T02:12:14.961Z,59.39
2023-02-11T02:15:27.502Z,57.68
2023-02-11T02:18:51.728Z,56.42
2023-02-11T02:23:05.308Z,55.84
2023-02-11T02:26:49.792Z,55.83
2023-02-11T02:30:36.879Z,55.09
2023-02-11T02:33:58.542Z,54.90
2023-02-11T02:37:18.222Z,54.42
2023-02-11T02:40:34.442Z,57.93
2023-02-11T02:43:47.703Z,62.34
2023-02-11T02:46:53.515Z,64.30
2023-02-11T02:50:03.588Z,63.04
2023-02-11T02:53:35.243Z,59.54
2023-02-11T02:56:54.337Z,56.58
2023-02-11T03:00:20.845Z,55.56
2023-02-11T03:03:45.244Z,56.15
2023-02-11T03:07:06.881Z,55.58
2023-02-11T03:10:24.520Z,54.84
2023-02-11T03:13:37.444Z,56.17
2023-02-11T03:16:46.701Z,57.86
2023-02-11T03:19:55.107Z,58.52
2023-02-11T03:23:13.952Z,59.99
2023-02-11T03:26:28.949Z,60.68
2023-02-11T03:29:46.691Z,60.32
2023-02-11T03:33:00.983Z,60.71
2023-02-11T03:36:16.064Z,58.78
2023-02-11T03:39:32.567Z,59.54
2023-02-11T03:42:46.889Z,58.03
2023-02-11T03:45:58.764Z,57.40
2023-02-11T03:49:12.648Z,56.26
2023-02-11T03:52:23.062Z,56.87
2023-02-11T03:55:39.031Z,55.20
2023-02-11T03:58:47.073Z,54.91
2023-02-11T04:01:54.268Z,55.00
2023-02-11T04:05:00.543Z,53.92
2023-02-11T04:08:08.765Z,55.14
2023-02-11T04:11:17.182Z,53.19
2023-02-11T04:14:26.921Z,52.42
2023-02-11T04:17:32.946Z,51.38
2023-02-11T04:20:39.592Z,52.30
2023-02-11T04:23:45.386Z,51.45
2023-02-11T04:26:54.820Z,50.51
2023-02-11T04:30:00.617Z,49.59
2023-02-11T04:33:07.414Z,48.97
2023-02-11T04:36:13.255Z,47.81
2023-02-11T04:39:20.415Z,47.29
2023-02-11T04:42:28.925Z,46.87
2023-02-11T04:45:36.323Z,46.87
2023-02-11T04:48:42.195Z,44.76
2023-02-11T04:51:49.655Z,45.30
2023-02-11T04:54:55.522Z,44.93
2023-02-11T04:58:04.780Z,43.29
2023-02-11T05:01:11.288Z,43.85
2023-02-11T05:04:17.949Z,42.54
2023-02-11T05:07:23.766Z,41.51
2023-02-11T05:10:30.316Z,40.26
2023-02-11T05:13:38.775Z,40.87
2023-02-11T05:16:45.506Z,40.35
2023-02-11T05:19:51.245Z,40.25
2023-02-11T05:22:57.799Z,40.49
2023-02-11T05:26:03.772Z,40.90
2023-02-11T05:29:12.952Z,40.29
2023-02-11T05:32:18.809Z,40.52
2023-02-11T05:35:26.368Z,40.19
2023-02-11T05:38:32.521Z,39.98
2023-02-11T05:41:39.162Z,38.88
2023-02-11T05:44:50.257Z,39.49
2023-02-11T05:47:57.240Z,40.56
2023-02-11T05:51:02.971Z,40.39
2023-02-11T05:54:09.822Z,40.07
2023-02-11T05:57:15.868Z,40.37
2023-02-11T06:00:25.719Z,39.07
2023-02-11T06:03:31.555Z,37.61
2023-02-11T06:06:38.414Z,38.57
2023-02-11T06:09:44.369Z,39.28
2023-02-11T06:12:51.057Z,39.36
2023-02-11T06:16:06.046Z,37.93
2023-02-11T06:19:12.716Z,38.70
2023-02-11T06:22:18.736Z,38.69
2023-02-11T06:25:25.357Z,38.47
2023-02-11T06:28:32.281Z,38.15
2023-02-11T06:31:42.119Z,37.22
2023-02-11T06:34:48.203Z,37.64
2023-02-11T06:37:54.884Z,37.65
2023-02-11T06:41:00.711Z,37.35
2023-02-11T06:44:07.546Z,37.20
2023-02-11T06:47:16.840Z,38.86
2023-02-11T06:50:23.730Z,39.25
2023-02-11T06:53:29.550Z,42.95
2023-02-11T06:56:37.558Z,41.89
2023-02-11T06:59:43.971Z,40.70
2023-02-11T07:02:53.216Z,40.75
2023-02-11T07:05:58.983Z,40.15
2023-02-11T07:09:05.629Z,41.20
2023-02-11T07:12:13.476Z,41.13
2023-02-11T07:15:20.369Z,40.72
2023-02-11T07:18:28.690Z,41.47
2023-02-11T07:21:35.295Z,40.99
2023-02-11T07:24:41.036Z,41.41
2023-02-11T07:27:50.287Z,41.64
2023-02-11T07:30:56.028Z,42.36
2023-02-11T07:34:07.032Z,41.73
2023-02-11T07:37:12.910Z,41.99
2023-02-11T07:40:19.870Z,41.38
2023-02-11T07:43:25.680Z,42.66
2023-02-11T07:46:32.548Z,42.15
2023-02-11T07:49:41.103Z,41.92
2023-02-11T07:52:47.710Z,41.53
2023-02-11T07:55:53.648Z,43.64
2023-02-11T07:59:05.166Z,43.98
2023-02-11T08:02:12.743Z,43.49
2023-02-11T08:05:22.134Z,43.99
2023-02-11T08:08:30.413Z,44.00
2023-02-11T08:11:39.343Z,43.42
2023-02-11T08:14:45.100Z,43.67
2023-02-11T08:17:51.616Z,43.41
2023-02-11T08:21:08.273Z,43.17
2023-02-11T08:24:15.575Z,56.42
2023-02-11T08:27:21.455Z,79.95
2023-02-11T08:30:28.243Z,68.89
2023-02-11T08:33:34.120Z,93.10
2023-02-11T08:36:45.777Z,58.54
2023-02-11T08:39:51.731Z,49.47
2023-02-11T08:42:59.592Z,109.03
2023-02-11T08:46:06.837Z,53.47
2023-02-11T08:49:14.624Z,58.33
2023-02-11T08:52:23.077Z,48.02
2023-02-11T08:55:29.854Z,47.34
2023-02-11T08:58:38.030Z,57.06
2023-02-11T09:01:44.958Z,52.74
2023-02-11T09:04:53.516Z,48.63
2023-02-11T09:08:06.042Z,47.27
2023-02-11T09:11:13.357Z,47.35
2023-02-11T09:14:27.187Z,48.84
2023-02-11T09:17:33.076Z,47.29
2023-02-11T09:20:39.936Z,46.24
2023-02-11T09:23:48.662Z,45.76
2023-02-11T09:26:55.438Z,47.47
2023-02-11T09:30:01.318Z,47.99
2023-02-11T09:33:08.100Z,47.73
2023-02-11T09:36:13.892Z,46.39
2023-02-11T09:39:23.517Z,46.28
2023-02-11T09:42:49.918Z,46.52
2023-02-11T09:45:59.800Z,43.10
2023-02-11T09:49:09.387Z,47.42
2023-02-11T09:52:38.761Z,46.85
2023-02-11T09:55:55.937Z,45.16
2023-02-11T09:59:05.257Z,44.55
2023-02-11T10:02:26.919Z,44.66
2023-02-11T10:06:06.715Z,45.29
2023-02-11T10:09:48.526Z,54.48
2023-02-11T10:13:27.748Z,51.03
2023-02-11T10:16:54.404Z,56.24
2023-02-11T10:20:24.908Z,45.62
2023-02-11T10:23:42.989Z,49.93
2023-02-11T10:26:50.218Z,45.68
2023-02-11T10:30:07.144Z,45.46
2023-02-11T10:33:29.799Z,46.70
2023-02-11T10:36:40.285Z,46.05
2023-02-11T10:39:47.173Z,44.71
2023-02-11T10:42:56.187Z,44.97
2023-02-11T10:46:09.176Z,45.50
2023-02-11T10:49:40.826Z,44.25
2023-02-11T10:52:47.367Z,45.51
2023-02-11T10:55:58.176Z,46.97
2023-02-11T10:59:10.552Z,49.90
2023-02-11T11:02:42.074Z,48.52
2023-02-11T11:05:58.726Z,45.54
2023-02-11T11:09:33.053Z,45.01
2023-02-11T11:12:51.644Z,48.15
2023-02-11T11:16:25.029Z,44.40
2023-02-11T11:19:36.873Z,50.04
2023-02-11T11:22:45.716Z,57.88
2023-02-11T11:26:08.420Z,49.31
2023-02-11T11:29:23.497Z,47.25
2023-02-11T11:32:37.290Z,48.53
2023-02-11T11:36:04.237Z,48.59
2023-02-11T11:39:26.414Z,47.03
2023-02-11T11:42:35.094Z,48.09
2023-02-11T11:45:42.790Z,46.00
2023-02-11T11:48:54.752Z,47.89
2023-02-11T11:52:30.628Z,46.94
2023-02-11T11:55:46.801Z,49.53
2023-02-11T11:58:54.574Z,47.77
2023-02-11T12:03:20.612Z,49.51
2023-02-11T12:06:59.575Z,47.87
2023-02-11T12:10:47.208Z,49.56
2023-02-11T12:14:18.916Z,48.29
2023-02-11T12:17:51.931Z,48.96
2023-02-11T12:21:29.580Z,49.23
2023-02-11T12:25:07.876Z,51.78
2023-02-11T12:28:40.282Z,50.26
2023-02-11T12:32:08.286Z,49.83
2023-02-11T12:35:43.586Z,51.11
2023-02-11T12:39:17.621Z,53.22
2023-02-11T12:43:19.989Z,51.97
2023-02-11T12:46:45.188Z,51.50
2023-02-11T12:50:14.228Z,49.90
2023-02-11T12:54:07.467Z,54.32
2023-02-11T12:57:26.160Z,52.25
2023-02-11T13:00:48.942Z,52.68
2023-02-11T13:04:12.055Z,53.58
2023-02-11T13:07:27.026Z,53.87
2023-02-11T13:10:41.150Z,58.13
2023-02-11T13:13:58.940Z,53.17
2023-02-11T13:17:20.921Z,57.73
2023-02-11T13:20:45.744Z,51.73
2023-02-11T13:24:07.571Z,51.63
2023-02-11T13:27:32.460Z,50.86
2023-02-11T13:30:47.713Z,50.87
2023-02-11T13:33:53.828Z,49.45
2023-02-11T13:37:03.241Z,48.75
2023-02-11T13:40:25.881Z,50.87
2023-02-11T13:43:37.392Z,51.68
2023-02-11T13:47:02.280Z,51.35
2023-02-11T13:50:24.925Z,50.00
2023-02-11T13:53:53.415Z,48.73
2023-02-11T13:57:42.819Z,50.03
2023-02-11T14:00:53.005Z,52.13
2023-02-11T14:04:39.453Z,53.20
2023-02-11T14:08:30.186Z,50.82
2023-02-11T14:11:58.384Z,53.17
2023-02-11T14:15:41.548Z,56.23
2023-02-11T14:19:06.469Z,54.93
2023-02-11T14:22:23.862Z,56.20
2023-02-11T14:25:32.277Z,52.92
2023-02-11T14:28:47.067Z,51.54
2023-02-11T14:32:11.015Z,50.98
2023-02-11T14:35:35.416Z,51.55
2023-02-11T14:39:15.332Z,50.07
2023-02-11T14:42:31.243Z,60.10
2023-02-11T14:45:51.451Z,52.37
2023-02-11T14:49:04.997Z,56.00
2023-02-11T14:52:30.529Z,61.44
2023-02-11T14:55:43.063Z,58.46
2023-02-11T14:58:52.253Z,59.73
2023-02-11T15:02:01.286Z,58.19
2023-02-11T15:05:21.364Z,59.22
2023-02-11T15:08:27.898Z,64.53
2023-02-11T15:11:41.652Z,59.03
2023-02-11T15:14:55.396Z,56.99
2023-02-11T15:18:09.913Z,55.85
2023-02-11T15:21:16.553Z,61.44
2023-02-11T15:24:31.292Z,70.79
2023-02-11T15:27:44.398Z,62.49
2023-02-11T15:30:59.843Z,58.84
2023-02-11T15:34:14.979Z,60.22
2023-02-11T15:37:26.997Z,66.78
2023-02-11T15:40:36.214Z,64.04
2023-02-11T15:43:49.356Z,60.76
2023-02-11T15:46:55.533Z,73.55
2023-02-11T15:50:06.089Z,59.16
2023-02-11T15:53:28.870Z,64.87
2023-02-11T15:56:45.380Z,66.44
2023-02-11T15:59:56.949Z,68.11
2023-02-11T16:03:03.610Z,66.78
2023-02-11T16:06:25.145Z,64.58
2023-02-11T16:09:40.080Z,67.06
2023-02-11T16:13:14.193Z,70.08
2023-02-11T16:16:27.285Z,78.01
2023-02-11T16:19:36.315Z,71.90
2023-02-11T16:22:50.511Z,73.05
2023-02-11T16:26:05.721Z,70.59
2023-02-11T16:29:20.331Z,66.51
2023-02-11T16:32:28.919Z,71.31
2023-02-11T16:35:35.916Z,70.52
2023-02-11T16:38:44.449Z,68.22
2023-02-11T16:41:52.767Z,64.92
2023-02-11T16:45:00.223Z,64.42
2023-02-11T16:48:10.691Z,68.04
2023-02-11T16:51:16.808Z,68.43
2023-02-11T16:54:27.074Z,70.56
2023-02-11T16:57:33.965Z,70.38
2023-02-11T17:00:41.260Z,69.34
2023-02-11T17:03:47.266Z,65.63
2023-02-11T17:06:55.933Z,63.63
2023-02-11T17:10:05.928Z,64.03
2023-02-11T17:13:12.489Z,68.89
2023-02-11T17:16:26.557Z,68.98
2023-02-11T17:19:33.664Z,68.73
2023-02-11T17:22:39.743Z,67.93
2023-02-11T17:25:49.441Z,66.68
2023-02-11T17:28:56.306Z,66.21
2023-02-11T17:32:03.246Z,67.38
2023-02-11T17:35:10.700Z,66.52
2023-02-11T17:38:17.507Z,70.39
2023-02-11T17:41:26.073Z,73.07
2023-02-11T17:44:32.575Z,72.75
2023-02-11T17:47:38.928Z,73.68
2023-02-11T17:50:45.765Z,72.10
2023-02-11T17:53:51.893Z,70.22
2023-02-11T17:57:01.297Z,72.12
2023-02-11T18:00:09.013Z,73.48
2023-02-11T18:03:21.621Z,76.01
2023-02-11T18:06:29.949Z,72.12
2023-02-11T18:09:40.976Z,69.18
2023-02-11T18:12:49.643Z,69.20
2023-02-11T18:15:56.407Z,67.98
2023-02-11T18:19:02.567Z,71.09
2023-02-11T18:22:10.033Z,90.62
2023-02-11T18:25:19.093Z,101.06
2023-02-11T18:28:28.429Z,83.50
2023-02-11T18:31:35.521Z,78.10
2023-02-11T18:34:43.481Z,79.96
2023-02-11T18:37:49.934Z,71.66
2023-02-11T18:41:00.327Z,78.29
2023-02-11T18:44:08.963Z,98.91
2023-02-11T18:47:15.757Z,72.73
2023-02-11T18:50:24.750Z,68.36
2023-02-11T18:53:31.563Z,105.94
2023-02-11T18:56:46.977Z,127.13
2023-02-11T18:59:59.163Z,98.69
2023-02-11T19:03:06.166Z,111.79
2023-02-11T19:06:20.316Z,91.99
2023-02-11T19:09:28.396Z,82.73
2023-02-11T19:12:35.838Z,69.54
2023-02-11T19:15:48.729Z,75.01
2023-02-11T19:18:55.494Z,73.31
2023-02-11T19:22:09.185Z,66.98
2023-02-11T19:25:17.417Z,67.82
2023-02-11T19:28:26.328Z,81.24
2023-02-11T19:31:36.649Z,70.49
2023-02-11T19:34:44.105Z,61.79
2023-02-11T19:37:50.802Z,62.98
2023-02-11T19:40:59.816Z,57.86
2023-02-11T19:44:08.619Z,58.29
2023-02-11T19:47:18.241Z,57.90
2023-02-11T19:50:25.317Z,56.67
2023-02-11T19:53:31.393Z,55.95
2023-02-11T19:56:40.396Z,58.99
2023-02-11T19:59:46.334Z,59.70
2023-02-11T20:02:55.953Z,58.23
2023-02-11T20:06:02.025Z,62.02
2023-02-11T20:09:12.353Z,59.14
2023-02-11T20:12:25.755Z,61.78
2023-02-11T20:15:32.443Z,63.40
2023-02-11T20:18:41.501Z,73.25
2023-02-11T20:21:56.231Z,74.05
2023-02-11T20:25:02.195Z,72.84
2023-02-11T20:28:08.801Z,83.49
2023-02-11T20:31:17.326Z,85.50
2023-02-11T20:34:26.869Z,112.45
2023-02-11T20:37:33.164Z,113.86
2023-02-11T20:40:39.965Z,215.86
2023-02-11T20:43:49.673Z,152.21
2023-02-11T20:46:57.384Z,189.43
2023-02-11T20:50:05.981Z,138.50
2023-02-11T20:53:15.623Z,128.61
2023-02-11T20:56:26.242Z,132.95
2023-02-11T20:59:33.470Z,116.38
2023-02-11T21:02:39.540Z,156.58
2023-02-11T21:05:51.833Z,142.63
2023-02-11T21:09:00.771Z,134.85
2023-02-11T21:12:08.945Z,118.94
2023-02-11T21:15:16.997Z,96.96
2023-02-11T21:18:23.904Z,93.87
2023-02-11T21:21:33.526Z,92.51
2023-02-11T21:24:40.242Z,71.31
2023-02-11T21:27:46.263Z,65.04
2023-02-11T21:30:54.773Z,51.29
2023-02-11T21:34:02.361Z,54.30
2023-02-11T21:37:11.929Z,48.90
2023-02-11T21:40:17.779Z,43.47
2023-02-11T21:43:25.788Z,38.92
2023-02-11T21:46:32.459Z,37.05
2023-02-11T21:49:42.298Z,38.65
2023-02-11T21:52:51.142Z,33.76
2023-02-11T21:56:07.300Z,34.67
2023-02-11T21:59:17.988Z,33.40
2023-02-11T22:02:24.539Z,31.14
2023-02-11T22:05:30.736Z,33.04
2023-02-11T22:08:40.808Z,35.31
2023-02-11T22:11:46.937Z,44.99
2023-02-11T22:14:55.757Z,44.18
2023-02-11T22:18:01.557Z,40.16
2023-02-11T22:21:12.836Z,38.16
2023-02-11T22:24:21.353Z,36.15
2023-02-11T22:27:29.230Z,34.89
2023-02-11T22:30:35.145Z,34.79
2023-02-11T22:33:41.997Z,33.48
2023-02-11T22:36:49.592Z,72.56
2023-02-11T22:39:59.137Z,45.76
2023-02-11T22:43:05.061Z,38.33
2023-02-11T22:46:12.630Z,39.90
2023-02-11T22:49:21.246Z,36.86
2023-02-11T22:52:28.527Z,35.60
2023-02-11T22:55:41.253Z,35.28
2023-02-11T22:58:48.029Z,36.01
2023-02-11T23:01:55.947Z,37.72
2023-02-11T23:05:03.768Z,33.31
2023-02-11T23:08:10.761Z,32.15
2023-02-11T23:11:23.985Z,33.19
2023-02-11T23:14:30.136Z,38.29
2023-02-11T23:17:37.075Z,35.15
2023-02-11T23:20:46.687Z,34.63
2023-02-11T23:24:01.445Z,34.16
2023-02-11T23:27:13.291Z,29.27
2023-02-11T23:30:22.054Z,26.38
2023-02-11T23:33:27.838Z,26.33
2023-02-11T23:36:35.025Z,26.48
2023-02-11T23:39:41.137Z,28.49
2023-02-11T23:42:52.507Z,27.00
2023-02-11T23:45:58.468Z,32.14
2023-02-11T23:49:05.412Z,33.22
2023-02-11T23:52:11.416Z,28.65
2023-02-11T23:55:18.234Z,31.49
2023-02-11T23:58:27.029Z,34.66
